< Typhoon 201014 2011 Season Typhoon 201102 >
Typhoon 201101 (AERE)
General InformationTrack Information on Google MapsDetailed Wind InformationAccess Analytics MapList of All Images || NewsDisaster Info.WeblogTrackbackTyphoon FrontTwiphoonTyphoon Now!Typhoon ImaginationResourceGoogle EarthGE AnimationAtom FeedGeoJSON
Detalied Best Track (Time Zone = UTC)
Year Month Day Hour Lat. Long. Pressure (hPa) Wind (kt) Class Image Chart
2011 5 6 12 11.9 128.2 1004 0 2 Image Chart
2011 5 6 18 12.0 127.4 1000 0 2 Image Chart
2011 5 7 00 12.5 126.7 1000 0 2 Image Chart
2011 5 7 06 12.9 126.0 998 0 2 Image Chart
2011 5 7 12 13.3 125.4 996 35 3 Image Chart
2011 5 7 18 13.5 124.7 996 35 3 Image Chart
2011 5 8 00 14.0 124.2 996 35 3 Image Chart
2011 5 8 06 14.5 123.7 994 35 3 Image Chart
2011 5 8 12 15.1 123.1 992 40 3 Image Chart
2011 5 8 18 15.6 122.9 992 40 3 Image Chart
2011 5 9 00 16.3 122.5 992 40 3 Image Chart
2011 5 9 06 17.2 122.3 996 35 3 Image Chart
2011 5 9 12 18.0 122.3 996 35 3 Image Chart
2011 5 9 18 19.2 122.2 996 35 3 Image Chart
2011 5 10 00 20.3 122.3 996 35 3 Image Chart
2011 5 10 06 21.2 123.1 996 35 3 Image Chart
2011 5 10 12 22.4 124.2 996 35 3 Image Chart
2011 5 10 18 23.5 125.0 996 35 3 Image Chart
2011 5 11 00 25.1 126.2 996 35 3 Image Chart
2011 5 11 06 26.6 127.8 996 35 3 Image Chart
2011 5 11 12 28.4 129.6 996 35 3 Image Chart
2011 5 11 18 30.1 132.0 998 0 2 Image Chart
2011 5 12 00 31.2 134.4 998 0 2 Image Chart
2011 5 12 06 32.7 137.2 996 0 2 Image Chart
2011 5 12 12 34.5 140.7 996 0 2 Image Chart
2011 5 12 18 36.4 143.3 990 0 6 Image Chart
2011 5 13 00 37.9 145.8 988 0 6 Image Chart
2011 5 13 06 39.2 148.1 986 0 6 Image Chart
2011 5 13 12 41.1 150.7 986 0 6 Image Chart
2011 5 13 18 43.2 154.3 984 0 6 Image Chart
2011 5 14 00 45.0 157.7 984 0 6 Image Chart
2011 5 14 06 46.6 161.3 980 0 6 Image Chart
2011 5 14 12 48.1 165.1 980 0 6 Image Chart
2011 5 14 18 49.6 169.2 978 0 6 Image Chart
2011 5 15 00 51.3 174.5 978 0 6 Image Chart
2011 5 15 06 52.6 180.5 978 0 6 Image Chart
Japan Meteorological Agency Best Track Data | Correction Date : 2011-06-10
< Typhoon 201014 2011 Season Typhoon 201102 >

Help